Time;durP1;ratioP1;P1;durP2;ratioP2;P2;SDS_P1;SDS_P2;PMS_P1;PMS_P2;Temp;Humidity;BMP_temperature;BMP_pressure;BME280_temperature;BME280_humidity;BME280_pressure;Samples;Min_cycle;Max_cycle;Signal;HPM_P1;HPM_P2
2023/11/29 00:01:23;;;;;;;;;;;;;;;;;;5075335;28;19970;-74
2023/11/29 00:03:49;;;;;;;;;;;;;;;;;;5077145;28;19952;-74
2023/11/29 00:06:15;;;;;;;;;;;;;;;;;;5075253;28;19916;-74
2023/11/29 00:08:41;;;;;;;;;;;;;;;;;;5076401;28;19912;-75
2023/11/29 00:11:07;;;;;;;;;;;;;;;;;;5076662;28;19951;-74
2023/11/29 00:13:33;;;;;;;;;;;;;;;;;;5076312;28;19908;-74
2023/11/29 00:15:59;;;;;;;;;;;;;;;;;;5076599;28;19915;-74
2023/11/29 00:18:25;;;;;;;;;;;;;;;;;;5076299;28;19912;-74
2023/11/29 00:20:51;;;;;;;;;;;;;;;;;;5076496;28;19916;-74
2023/11/29 00:23:16;;;;;;;;;;;;;;;;;;5074930;28;19908;-74
2023/11/29 00:25:42;;;;;;;;;;;;;;;;;;5074850;28;19908;-75
2023/11/29 00:28:09;;;;;;;;;;;;;;;;;;5074805;28;19923;-75
2023/11/29 00:30:34;;;;;;;;;;;;;;;;;;5076084;28;20418;-75
2023/11/29 00:33:00;;;;;;;;;;;;;;;;;;5076264;28;20007;-75
2023/11/29 00:35:26;;;;;;;;;;;;;;;;;;5075507;28;19912;-74
2023/11/29 00:37:52;;;;;;;;;;;;;;;;;;5075718;28;20066;-74
2023/11/29 00:40:18;;;;;;;;;;;;;;;;;;5075812;28;19916;-75
2023/11/29 00:42:44;;;;;;;;;;;;;;;;;;5075988;28;19951;-75
2023/11/29 00:45:10;;;;;;;;;;;;;;;;;;5075781;28;19966;-74
2023/11/29 00:47:36;;;;;;;;;;;;;;;;;;5075674;28;19908;-74
2023/11/29 00:50:02;;;;;;;;;;;;;;;;;;5074335;28;19916;-74
2023/11/29 00:55:14;;;;;;;;;;;;;;;;;;5075523;28;19978;-74
2023/11/29 00:57:40;;;;;;;;;;;;;;;;;;5074199;28;19934;-75
2023/11/29 01:00:06;;;;;;;;;;;;;;;;;;5076005;28;20411;-74
2023/11/29 01:02:31;;;;;;;;;;;;;;;;;;5075375;28;20284;-74
2023/11/29 01:04:57;;;;;;;;;;;;;;;;;;5075221;28;19909;-74
2023/11/29 01:07:23;;;;;;;;;;;;;;;;;;5073940;28;19908;-74
2023/11/29 01:09:49;;;;;;;;;;;;;;;;;;5075325;28;20295;-73
2023/11/29 01:12:16;;;;;;;;;;;;;;;;;;5075108;28;19912;-72
2023/11/29 01:14:42;;;;;;;;;;;;;;;;;;5075382;28;19908;-73
2023/11/29 01:17:08;;;;;;;;;;;;;;;;;;5075051;28;20253;-72
2023/11/29 01:19:34;;;;;;;;;;;;;;;;;;5073775;28;19915;-73
2023/11/29 01:22:00;;;;;;;;;;;;;;;;;;5073718;28;19912;-72
2023/11/29 01:24:26;;;;;;;;;;;;;;;;;;5075332;28;19939;-72
2023/11/29 01:26:51;;;;;;;;;;;;;;;;;;5075263;28;19987;-74
2023/11/29 01:29:17;;;;;;;;;;;;;;;;;;5073632;28;19908;-73
2023/11/29 01:31:44;;;;;;;;;;;;;;;;;;5074539;28;19968;-73
2023/11/29 01:34:10;;;;;;;;;;;;;;;;;;5074718;28;19959;-75
2023/11/29 01:36:36;;;;;;;;;;;;;;;;;;5074708;28;19908;-73
2023/11/29 01:39:02;;;;;;;;;;;;;;;;;;5074896;28;19961;-73
2023/11/29 01:41:28;;;;;;;;;;;;;;;;;;5074933;28;20360;-72
2023/11/29 01:43:55;;;;;;;;;;;;;;;;;;5074431;28;19908;-72
2023/11/29 01:46:21;;;;;;;;;;;;;;;;;;5074524;28;19908;-74
2023/11/29 01:48:47;;;;;;;;;;;;;;;;;;5073158;28;19909;-74
2023/11/29 01:51:13;;;;;;;;;;;;;;;;;;5074415;28;19909;-74
2023/11/29 01:53:38;;;;;;;;;;;;;;;;;;5074318;28;19915;-75
2023/11/29 01:56:04;;;;;;;;;;;;;;;;;;5074375;28;19951;-75
2023/11/29 01:58:31;;;;;;;;;;;;;;;;;;5074651;28;19948;-75
2023/11/29 02:00:57;;;;;;;;;;;;;;;;;;5072961;28;19908;-74
2023/11/29 02:03:23;;;;;;;;;;;;;;;;;;5074206;28;19909;-74
2023/11/29 02:05:48;;;;;;;;;;;;;;;;;;5074188;28;19954;-74
2023/11/29 02:08:14;;;;;;;;;;;;;;;;;;5074086;28;19962;-74
2023/11/29 02:10:40;;;;;;;;;;;;;;;;;;5074220;28;19908;-74
2023/11/29 02:13:06;;;;;;;;;;;;;;;;;;5074020;28;19922;-74
2023/11/29 02:15:33;;;;;;;;;;;;;;;;;;5074051;28;19915;-74
2023/11/29 02:17:59;;;;;;;;;;;;;;;;;;5073481;28;19940;-74
2023/11/29 02:20:25;;;;;;;;;;;;;;;;;;5074369;28;20003;-74
2023/11/29 02:22:51;;;;;;;;;;;;;;;;;;5073907;28;19908;-73
2023/11/29 02:25:17;;;;;;;;;;;;;;;;;;5072623;28;19969;-73
2023/11/29 02:27:43;;;;;;;;;;;;;;;;;;5072604;28;19908;-73
2023/11/29 02:30:09;;;;;;;;;;;;;;;;;;5073913;28;19919;-73
2023/11/29 02:32:35;;;;;;;;;;;;;;;;;;5072581;28;19970;-73
2023/11/29 02:35:01;;;;;;;;;;;;;;;;;;5072536;28;19989;-73
2023/11/29 02:37:27;;;;;;;;;;;;;;;;;;5073812;28;19909;-73
2023/11/29 02:39:53;;;;;;;;;;;;;;;;;;5073799;28;19915;-73
2023/11/29 02:42:20;;;;;;;;;;;;;;;;;;5072554;28;19913;-73
2023/11/29 02:44:46;;;;;;;;;;;;;;;;;;5072603;28;19908;-74
2023/11/29 02:47:12;;;;;;;;;;;;;;;;;;5073872;28;20315;-73
2023/11/29 02:49:38;;;;;;;;;;;;;;;;;;5073963;28;19908;-73
2023/11/29 02:52:03;;;;;;;;;;;;;;;;;;5073642;28;20015;-73
2023/11/29 02:54:30;;;;;;;;;;;;;;;;;;5073961;28;19912;-73
2023/11/29 02:56:55;;;;;;;;;;;;;;;;;;5073845;28;19947;-73
2023/11/29 02:59:21;;;;;;;;;;;;;;;;;;5073837;28;19944;-73
2023/11/29 03:01:48;;;;;;;;;;;;;;;;;;5073576;28;19913;-73
2023/11/29 03:04:14;;;;;;;;;;;;;;;;;;5073542;28;19969;-73
2023/11/29 03:06:40;;;;;;;;;;;;;;;;;;5073563;28;19913;-73
2023/11/29 03:09:07;;;;;;;;;;;;;;;;;;5073507;28;19915;-73
2023/11/29 03:11:33;;;;;;;;;;;;;;;;;;5073367;28;19917;-74
2023/11/29 03:13:59;;;;;;;;;;;;;;;;;;5072162;28;19909;-74
2023/11/29 03:16:25;;;;;;;;;;;;;;;;;;5073741;28;20008;-74
2023/11/29 03:18:51;;;;;;;;;;;;;;;;;;5072053;28;19909;-74
2023/11/29 03:21:17;;;;;;;;;;;;;;;;;;5073828;28;19916;-74
2023/11/29 03:23:43;;;;;;;;;;;;;;;;;;5073493;28;19908;-74
2023/11/29 03:26:09;;;;;;;;;;;;;;;;;;5072143;28;19915;-74
2023/11/29 03:28:35;;;;;;;;;;;;;;;;;;5073696;28;19915;-74
2023/11/29 03:31:01;;;;;;;;;;;;;;;;;;5075416;28;20283;-74
2023/11/29 03:33:27;;;;;;;;;;;;;;;;;;5077061;28;20338;-74
2023/11/29 03:35:53;;;;;;;;;;;;;;;;;;5077092;28;19908;-74
2023/11/29 03:38:19;;;;;;;;;;;;;;;;;;5076993;28;20019;-74
2023/11/29 03:40:45;;;;;;;;;;;;;;;;;;5075728;28;19916;-75
2023/11/29 03:43:11;;;;;;;;;;;;;;;;;;5077198;28;19915;-74
2023/11/29 03:45:37;;;;;;;;;;;;;;;;;;5076948;28;20003;-75
2023/11/29 03:48:03;;;;;;;;;;;;;;;;;;5077149;28;19909;-74
2023/11/29 03:50:29;;;;;;;;;;;;;;;;;;5076779;28;19909;-74
2023/11/29 03:52:55;;;;;;;;;;;;;;;;;;5076646;28;20019;-74
2023/11/29 03:55:21;;;;;;;;;;;;;;;;;;5076653;28;19919;-74
2023/11/29 03:57:47;;;;;;;;;;;;;;;;;;5076687;28;20007;-75
2023/11/29 04:00:13;;;;;;;;;;;;;;;;;;5075297;28;20002;-74
2023/11/29 04:02:39;;;;;;;;;;;;;;;;;;5076471;28;20413;-74
2023/11/29 04:05:05;;;;;;;;;;;;;;;;;;5076742;28;19912;-74
2023/11/29 04:07:31;;;;;;;;;;;;;;;;;;5076421;28;20011;-74
2023/11/29 04:09:57;;;;;;;;;;;;;;;;;;5076465;28;19916;-75
2023/11/29 04:12:23;;;;;;;;;;;;;;;;;;5076871;28;19916;-74
2023/11/29 04:14:49;;;;;;;;;;;;;;;;;;5076376;28;19908;-74
2023/11/29 04:17:15;;;;;;;;;;;;;;;;;;5076717;28;19915;-73
2023/11/29 04:19:41;;;;;;;;;;;;;;;;;;5076545;28;19908;-74
2023/11/29 04:22:07;;;;;;;;;;;;;;;;;;5076487;28;20356;-74
2023/11/29 04:24:33;;;;;;;;;;;;;;;;;;5076124;28;20380;-74
2023/11/29 04:26:59;;;;;;;;;;;;;;;;;;5076107;28;20368;-74
2023/11/29 04:29:25;;;;;;;;;;;;;;;;;;5076041;28;19908;-74
2023/11/29 04:31:51;;;;;;;;;;;;;;;;;;5075827;28;20426;-74
2023/11/29 04:34:17;;;;;;;;;;;;;;;;;;5075975;28;20318;-74
2023/11/29 04:36:43;;;;;;;;;;;;;;;;;;5076416;28;20316;-75
2023/11/29 04:39:12;;;;;;;;;;;;;;;;;;5074922;28;19909;-74
2023/11/29 04:41:38;;;;;;;;;;;;;;;;;;5075394;28;19912;-75
2023/11/29 04:44:06;;;;;;;;;;;;;;;;;;5075855;28;19995;-74
2023/11/29 04:46:31;;;;;;;;;;;;;;;;;;5075833;28;19908;-74
2023/11/29 04:48:57;;;;;;;;;;;;;;;;;;5074390;28;19915;-74
2023/11/29 04:51:23;;;;;;;;;;;;;;;;;;5074357;28;19909;-74
2023/11/29 04:53:50;;;;;;;;;;;;;;;;;;5075866;28;19913;-75
2023/11/29 04:56:16;;;;;;;;;;;;;;;;;;5075485;28;19940;-74
2023/11/29 04:58:42;;;;;;;;;;;;;;;;;;5074216;28;20372;-74
2023/11/29 05:01:11;;;;;;;;;;;;;;;;;;5075479;28;20002;-74
2023/11/29 05:03:37;;;;;;;;;;;;;;;;;;5075905;28;19996;-74
2023/11/29 05:06:06;;;;;;;;;;;;;;;;;;5075934;28;19940;-74
2023/11/29 05:08:32;;;;;;;;;;;;;;;;;;5075288;28;19935;-74
2023/11/29 05:10:58;;;;;;;;;;;;;;;;;;5075399;28;19916;-74
2023/11/29 05:13:24;;;;;;;;;;;;;;;;;;5074985;28;19921;-74
2023/11/29 05:15:50;;;;;;;;;;;;;;;;;;5075204;28;19950;-74
2023/11/29 05:18:16;;;;;;;;;;;;;;;;;;5073740;28;19908;-74
2023/11/29 05:20:42;;;;;;;;;;;;;;;;;;5075353;28;19909;-74
2023/11/29 05:23:07;;;;;;;;;;;;;;;;;;5075047;28;19953;-74
2023/11/29 05:25:33;;;;;;;;;;;;;;;;;;5074961;28;19912;-74
2023/11/29 05:27:59;;;;;;;;;;;;;;;;;;5074892;28;19913;-74
2023/11/29 05:30:25;;;;;;;;;;;;;;;;;;5074408;28;19923;-74
2023/11/29 05:32:51;;;;;;;;;;;;;;;;;;5074439;28;20015;-75
2023/11/29 05:35:17;;;;;;;;;;;;;;;;;;5074296;28;19911;-74
2023/11/29 05:37:44;;;;;;;;;;;;;;;;;;5074232;28;20010;-74
2023/11/29 05:40:10;;;;;;;;;;;;;;;;;;5074110;28;20288;-74
2023/11/29 05:42:38;;;;;;;;;;;;;;;;;;5074691;28;19915;-74
2023/11/29 05:45:04;;;;;;;;;;;;;;;;;;5072997;28;19915;-74
2023/11/29 05:47:30;;;;;;;;;;;;;;;;;;5073377;28;20287;-74
2023/11/29 05:49:56;;;;;;;;;;;;;;;;;;5073250;28;19908;-74
2023/11/29 05:52:22;;;;;;;;;;;;;;;;;;5074033;28;19917;-74
2023/11/29 05:54:48;;;;;;;;;;;;;;;;;;5074397;28;19954;-74
2023/11/29 05:57:14;;;;;;;;;;;;;;;;;;5074500;28;19908;-74
2023/11/29 05:59:40;;;;;;;;;;;;;;;;;;5074583;28;19943;-74
2023/11/29 06:02:06;;;;;;;;;;;;;;;;;;5074348;28;19909;-74
2023/11/29 06:04:32;;;;;;;;;;;;;;;;;;5074267;28;20365;-74
2023/11/29 06:06:58;;;;;;;;;;;;;;;;;;5073207;28;19923;-74
2023/11/29 06:09:30;;;;;;;;;;;;;;;;;;5074286;28;19908;-74
2023/11/29 06:11:56;;;;;;;;;;;;;;;;;;5074161;28;19924;-76
2023/11/29 06:14:25;;;;;;;;;;;;;;;;;;5072888;28;19909;-73
2023/11/29 06:16:51;;;;;;;;;;;;;;;;;;5072754;28;20008;-74
2023/11/29 06:19:17;;;;;;;;;;;;;;;;;;5072738;28;19951;-74
2023/11/29 06:21:44;;;;;;;;;;;;;;;;;;5072020;28;19959;-69
2023/11/29 06:24:16;;;;;;;;;;;;;;;;;;5072800;28;19908;-75
2023/11/29 06:26:45;;;;;;;;;;;;;;;;;;5072395;28;19934;-75
2023/11/29 06:29:13;;;;;;;;;;;;;;;;;;5072887;28;19916;-77
2023/11/29 06:31:41;;;;;;;;;;;;;;;;;;5072381;28;19936;-77
2023/11/29 06:34:08;;;;;;;;;;;;;;;;;;5074171;28;19908;-77
2023/11/29 06:36:38;;;;;;;;;;;;;;;;;;5073755;28;19909;-72
2023/11/29 06:39:09;;;;;;;;;;;;;;;;;;5072355;28;19991;-69
2023/11/29 06:41:35;;;;;;;;;;;;;;;;;;5072150;28;19915;-72
2023/11/29 06:44:01;;;;;;;;;;;;;;;;;;5072264;28;19916;-72
2023/11/29 06:46:27;;;;;;;;;;;;;;;;;;5073063;28;19909;-73
2023/11/29 06:48:53;;;;;;;;;;;;;;;;;;5071751;28;19962;-70
2023/11/29 06:51:19;;;;;;;;;;;;;;;;;;5072711;28;19909;-71
2023/11/29 06:53:46;;;;;;;;;;;;;;;;;;5072845;28;19930;-71
2023/11/29 06:56:12;;;;;;;;;;;;;;;;;;5071666;28;20303;-71
2023/11/29 06:58:38;;;;;;;;;;;;;;;;;;5072901;28;19909;-72
2023/11/29 07:01:06;;;;;;;;;;;;;;;;;;5072924;28;19916;-72
2023/11/29 07:03:32;;;;;;;;;;;;;;;;;;5073231;28;19908;-72
2023/11/29 07:05:58;;;;;;;;;;;;;;;;;;5076930;28;19966;-71
2023/11/29 07:08:24;;;;;;;;;;;;;;;;;;5077143;28;19961;-71
2023/11/29 07:10:50;;;;;;;;;;;;;;;;;;5077192;28;19920;-73
2023/11/29 07:13:15;;;;;;;;;;;;;;;;;;5075852;28;19923;-77
2023/11/29 07:15:41;;;;;;;;;;;;;;;;;;5076862;28;19908;-72
2023/11/29 07:18:07;;;;;;;;;;;;;;;;;;5076932;28;20005;-76
2023/11/29 07:20:33;;;;;;;;;;;;;;;;;;5075453;28;20295;-71
2023/11/29 07:22:59;;;;;;;;;;;;;;;;;;5076548;28;20105;-72
2023/11/29 07:25:25;;;;;;;;;;;;;;;;;;5076576;28;19935;-74
2023/11/29 07:27:51;;;;;;;;;;;;;;;;;;5076517;28;19908;-75
2023/11/29 07:30:17;;;;;;;;;;;;;;;;;;5076955;28;20348;-77
2023/11/29 07:32:43;;;;;;;;;;;;;;;;;;5077052;28;20368;-73
2023/11/29 07:35:09;;;;;;;;;;;;;;;;;;5076906;28;20414;-77
2023/11/29 07:37:35;;;;;;;;;;;;;;;;;;5076736;28;19962;-74
2023/11/29 07:40:02;;;;;;;;;;;;;;;;;;5076611;28;20294;-78
2023/11/29 07:42:28;;;;;;;;;;;;;;;;;;5075015;28;20008;-75
2023/11/29 07:44:54;;;;;;;;;;;;;;;;;;5076209;28;19935;-69
2023/11/29 07:47:20;;;;;;;;;;;;;;;;;;5076204;28;20344;-75
2023/11/29 07:49:46;;;;;;;;;;;;;;;;;;5075496;28;20274;-73
2023/11/29 07:52:12;;;;;;;;;;;;;;;;;;5074621;28;19960;-72
2023/11/29 07:54:38;;;;;;;;;;;;;;;;;;5076054;28;20346;-73
2023/11/29 07:57:04;;;;;;;;;;;;;;;;;;5074829;28;19916;-69
2023/11/29 07:59:32;;;;;;;;;;;;;;;;;;5076107;28;19912;-74
2023/11/29 08:01:58;;;;;;;;;;;;;;;;;;5076265;28;20388;-70
2023/11/29 08:04:24;;;;;;;;;;;;;;;;;;5076050;28;19915;-70
2023/11/29 08:06:50;;;;;;;;;;;;;;;;;;5074740;28;19908;-71
2023/11/29 08:09:16;;;;;;;;;;;;;;;;;;5075888;28;19909;-71
2023/11/29 08:11:44;;;;;;;;;;;;;;;;;;5075797;28;19909;-71
2023/11/29 08:14:10;;;;;;;;;;;;;;;;;;5074587;28;19912;-70
2023/11/29 08:16:36;;;;;;;;;;;;;;;;;;5075040;28;20325;-70
2023/11/29 08:19:02;;;;;;;;;;;;;;;;;;5075609;28;20269;-74
2023/11/29 08:21:30;;;;;;;;;;;;;;;;;;5075606;28;19920;-71
2023/11/29 08:23:56;;;;;;;;;;;;;;;;;;5075659;28;19987;-68
2023/11/29 08:26:22;;;;;;;;;;;;;;;;;;5075351;28;19908;-73
2023/11/29 08:28:48;;;;;;;;;;;;;;;;;;5075540;28;19908;-70
2023/11/29 08:31:16;;;;;;;;;;;;;;;;;;5074934;28;19921;-70
2023/11/29 08:33:42;;;;;;;;;;;;;;;;;;5074989;28;19923;-72
2023/11/29 08:36:08;;;;;;;;;;;;;;;;;;5073136;28;19909;-69
2023/11/29 08:38:34;;;;;;;;;;;;;;;;;;5074787;28;19909;-69
2023/11/29 08:41:00;;;;;;;;;;;;;;;;;;5074994;28;19912;-71
2023/11/29 08:43:26;;;;;;;;;;;;;;;;;;5075115;28;19939;-72
2023/11/29 08:45:52;;;;;;;;;;;;;;;;;;5075227;28;19915;-72
2023/11/29 08:48:17;;;;;;;;;;;;;;;;;;5074985;28;19916;-70
2023/11/29 08:50:43;;;;;;;;;;;;;;;;;;5075421;28;19908;-70
2023/11/29 08:53:09;;;;;;;;;;;;;;;;;;5073863;28;19927;-71
2023/11/29 08:55:42;;;;;;;;;;;;;;;;;;5075721;28;20363;-71
2023/11/29 08:58:08;;;;;;;;;;;;;;;;;;5073796;28;20303;-71
2023/11/29 09:00:34;;;;;;;;;;;;;;;;;;5073860;28;20003;-70
2023/11/29 09:03:00;;;;;;;;;;;;;;;;;;5075043;28;20368;-69
2023/11/29 09:05:27;;;;;;;;;;;;;;;;;;5075054;28;20371;-72
2023/11/29 09:07:53;;;;;;;;;;;;;;;;;;5074510;28;19948;-69
2023/11/29 09:10:19;;;;;;;;;;;;;;;;;;5074549;28;19916;-69
2023/11/29 09:12:45;;;;;;;;;;;;;;;;;;5074074;28;19916;-68
2023/11/29 09:15:11;;;;;;;;;;;;;;;;;;5073984;28;19909;-70
2023/11/29 09:17:44;;;;;;;;;;;;;;;;;;5074479;28;19916;-69
2023/11/29 09:20:10;;;;;;;;;;;;;;;;;;5074524;28;19986;-70
2023/11/29 09:22:36;;;;;;;;;;;;;;;;;;5074029;28;20304;-68
2023/11/29 09:25:02;;;;;;;;;;;;;;;;;;5074279;28;19954;-68
2023/11/29 09:27:29;;;;;;;;;;;;;;;;;;5074017;28;19916;-69
2023/11/29 09:29:55;;;;;;;;;;;;;;;;;;5073931;28;19908;-69
2023/11/29 09:32:21;;;;;;;;;;;;;;;;;;5073565;28;20233;-69
2023/11/29 09:34:47;;;;;;;;;;;;;;;;;;5074224;28;19909;-69
2023/11/29 09:37:13;;;;;;;;;;;;;;;;;;5073489;28;19936;-67
2023/11/29 09:39:42;;;;;;;;;;;;;;;;;;5074268;28;19908;-68
2023/11/29 09:42:09;;;;;;;;;;;;;;;;;;5073425;28;19935;-70
2023/11/29 09:44:39;;;;;;;;;;;;;;;;;;5072751;28;20408;-72
2023/11/29 09:47:05;;;;;;;;;;;;;;;;;;5074478;28;19958;-71
2023/11/29 09:49:32;;;;;;;;;;;;;;;;;;5073505;28;19930;-72
2023/11/29 09:51:58;;;;;;;;;;;;;;;;;;5073349;28;19916;-71
2023/11/29 09:54:24;;;;;;;;;;;;;;;;;;5073621;28;19962;-72
2023/11/29 09:56:50;;;;;;;;;;;;;;;;;;5074005;28;19979;-71
2023/11/29 09:59:17;;;;;;;;;;;;;;;;;;5073584;28;20360;-72
2023/11/29 10:01:43;;;;;;;;;;;;;;;;;;5073940;28;20003;-71
2023/11/29 10:04:09;;;;;;;;;;;;;;;;;;5073752;28;19908;-72
2023/11/29 10:06:35;;;;;;;;;;;;;;;;;;5072289;28;19965;-71
2023/11/29 10:09:01;;;;;;;;;;;;;;;;;;5073719;28;19909;-71
2023/11/29 10:11:29;;;;;;;;;;;;;;;;;;5073376;28;20429;-72
2023/11/29 10:13:55;;;;;;;;;;;;;;;;;;5072103;28;19916;-72
2023/11/29 10:16:22;;;;;;;;;;;;;;;;;;5073684;28;19915;-72
2023/11/29 10:18:48;;;;;;;;;;;;;;;;;;5071043;28;19908;-71
2023/11/29 10:21:14;;;;;;;;;;;;;;;;;;5072580;28;20300;-73
2023/11/29 10:23:40;;;;;;;;;;;;;;;;;;5071882;28;19921;-72
2023/11/29 10:26:10;;;;;;;;;;;;;;;;;;5072978;28;19916;-73
2023/11/29 10:28:36;;;;;;;;;;;;;;;;;;5073028;28;19916;-71
2023/11/29 10:31:03;;;;;;;;;;;;;;;;;;5072947;28;19920;-72
2023/11/29 10:33:30;;;;;;;;;;;;;;;;;;5073437;28;19927;-71
2023/11/29 10:35:57;;;;;;;;;;;;;;;;;;5073829;28;20408;-71
2023/11/29 10:38:23;;;;;;;;;;;;;;;;;;5072820;28;19908;-72
2023/11/29 10:40:50;;;;;;;;;;;;;;;;;;5072673;28;20403;-72
2023/11/29 10:43:16;;;;;;;;;;;;;;;;;;5073198;28;20418;-72
2023/11/29 10:45:42;;;;;;;;;;;;;;;;;;5071864;28;19995;-72
2023/11/29 10:48:08;;;;;;;;;;;;;;;;;;5071793;28;19912;-71
2023/11/29 10:50:34;;;;;;;;;;;;;;;;;;5071858;28;20377;-70
2023/11/29 10:53:00;;;;;;;;;;;;;;;;;;5071556;28;19954;-71
2023/11/29 10:55:26;;;;;;;;;;;;;;;;;;5071572;28;19909;-71
2023/11/29 11:06:39;;;;;;;;;;;;;;;;;;5085103;27;19919;-70
2023/11/29 11:09:06;;;;;;;;;;;;;;;;;;5098709;28;19920;-70
2023/11/29 11:14:41;;;;;;;;;;;;;;;;;;5095686;27;20392;-70
2023/11/29 11:17:13;;;;;;;;;;;;;;;;;;5087329;28;19912;-71
2023/11/29 11:19:39;;;;;;;;;;;;;;;;;;5084227;28;19913;-71
2023/11/29 11:22:05;;;;;;;;;;;;;;;;;;5084226;28;19908;-70
2023/11/29 11:24:31;;;;;;;;;;;;;;;;;;5099832;28;19935;-71
2023/11/29 11:26:57;;;;;;;;;;;;;;;;;;5088740;28;19919;-71
2023/11/29 11:29:24;;;;;;;;;;;;;;;;;;5084115;28;19912;-72
2023/11/29 11:31:50;;;;;;;;;;;;;;;;;;5093111;28;19916;-71
2023/11/29 11:34:16;;;;;;;;;;;;;;;;;;5089832;28;20394;-69
2023/11/29 11:36:42;;;;;;;;;;;;;;;;;;5092988;28;20372;-69
2023/11/29 11:39:08;;;;;;;;;;;;;;;;;;5098494;28;20312;-71
2023/11/29 11:41:34;;;;;;;;;;;;;;;;;;5090223;28;20007;-72
2023/11/29 11:44:00;;;;;;;;;;;;;;;;;;5089147;28;20638;-73
2023/11/29 11:46:26;;;;;;;;;;;;;;;;;;5096609;28;19908;-71
2023/11/29 11:48:52;;;;;;;;;;;;;;;;;;5099071;28;20004;-72
2023/11/29 11:51:20;;;;;;;;;;;;;;;;;;5099861;28;19908;-72
2023/11/29 11:53:48;;;;;;;;;;;;;;;;;;5096989;28;19924;-72
2023/11/29 11:56:14;;;;;;;;;;;;;;;;;;5106327;28;19916;-72
2023/11/29 11:58:41;;;;;;;;;;;;;;;;;;5096437;28;19971;-72
2023/11/29 12:01:08;;;;;;;;;;;;;;;;;;5089348;28;19908;-72
2023/11/29 12:03:34;;;;;;;;;;;;;;;;;;5091223;28;19912;-69
2023/11/29 12:06:00;;;;;;;;;;;;;;;;;;5101490;28;20423;-71
2023/11/29 12:08:26;;;;;;;;;;;;;;;;;;5083409;28;20371;-71
2023/11/29 12:10:52;;;;;;;;;;;;;;;;;;5098063;28;20288;-71
2023/11/29 12:13:18;;;;;;;;;;;;;;;;;;5098979;28;19946;-71
2023/11/29 12:15:44;;;;;;;;;;;;;;;;;;5105732;28;20018;-71
2023/11/29 12:18:10;;;;;;;;;;;;;;;;;;5100238;28;19915;-69
2023/11/29 12:20:36;;;;;;;;;;;;;;;;;;5105299;28;19912;-69
2023/11/29 12:23:02;;;;;;;;;;;;;;;;;;5101382;28;19908;-70
2023/11/29 12:26:24;;;;;;;;;;;;;;;;;;5085920;27;19921;-69
2023/11/29 12:30:23;;;;;;;;;;;;;;;;;;5087177;27;19942;-68
2023/11/29 12:32:49;;;;;;;;;;;;;;;;;;5087643;28;19920;-69
2023/11/29 12:35:15;;;;;;;;;;;;;;;;;;5089723;28;20257;-70
2023/11/29 12:37:45;;;;;;;;;;;;;;;;;;5089625;28;19931;-69
2023/11/29 12:40:11;;;;;;;;;;;;;;;;;;5088496;28;19909;-68
2023/11/29 12:42:37;;;;;;;;;;;;;;;;;;5076648;28;19908;-69
2023/11/29 12:45:44;;;;;;;;;;;;;;;;;;5086039;27;19921;-72
2023/11/29 12:48:10;;;;;;;;;;;;;;;;;;5089234;28;19919;-71
2023/11/29 12:50:36;;;;;;;;;;;;;;;;;;5088858;28;19913;-77
2023/11/29 12:53:05;;;;;;;;;;;;;;;;;;5089216;28;19955;-78
2023/11/29 12:55:31;;;;;;;;;;;;;;;;;;5089002;28;19978;-81
2023/11/29 12:57:56;;;;;;;;;;;;;;;;;;5087864;28;20364;-72
2023/11/29 13:00:22;;;;;;;;;;;;;;;;;;5089308;28;20435;-73
2023/11/29 13:02:49;;;;;;;;;;;;;;;;;;5088650;28;20395;-72
2023/11/29 13:05:15;;;;;;;;;;;;;;;;;;5089962;28;19924;-74
2023/11/29 13:07:41;;;;;;;;;;;;;;;;;;5090295;28;19908;-72
2023/11/29 13:10:07;;;;;;;;;;;;;;;;;;5089297;28;20300;-73
2023/11/29 13:12:33;;;;;;;;;;;;;;;;;;5090037;28;19943;-72
2023/11/29 13:14:59;;;;;;;;;;;;;;;;;;5089760;28;19908;-72
2023/11/29 13:17:25;;;;;;;;;;;;;;;;;;5093739;28;19908;-73
2023/11/29 13:19:51;;;;;;;;;;;;;;;;;;5088766;28;19934;-72
2023/11/29 13:22:17;;;;;;;;;;;;;;;;;;5089746;28;20658;-76
2023/11/29 13:24:43;;;;;;;;;;;;;;;;;;5088505;28;20441;-76
2023/11/29 13:27:09;;;;;;;;;;;;;;;;;;5087212;28;19916;-74
2023/11/29 13:29:35;;;;;;;;;;;;;;;;;;5087619;28;20023;-74
2023/11/29 13:32:03;;;;;;;;;;;;;;;;;;5088358;28;19915;-75
2023/11/29 13:34:30;;;;;;;;;;;;;;;;;;5089180;28;19912;-77
2023/11/29 13:36:56;;;;;;;;;;;;;;;;;;5088871;28;19917;-74
2023/11/29 13:39:22;;;;;;;;;;;;;;;;;;5089526;28;19919;-74
2023/11/29 13:41:48;;;;;;;;;;;;;;;;;;5088856;28;19912;-76
2023/11/29 13:44:14;;;;;;;;;;;;;;;;;;5088291;28;20407;-78
2023/11/29 13:46:40;;;;;;;;;;;;;;;;;;5089810;28;19999;-77
2023/11/29 13:49:07;;;;;;;;;;;;;;;;;;5084795;28;19944;-75
2023/11/29 13:51:33;;;;;;;;;;;;;;;;;;5085879;28;20029;-81
2023/11/29 13:53:59;;;;;;;;;;;;;;;;;;5086697;28;19926;-72
2023/11/29 13:56:24;;;;;;;;;;;;;;;;;;5076045;28;20007;-77
2023/11/29 13:58:50;;;;;;;;;;;;;;;;;;5072461;28;19947;-75
2023/11/29 14:01:16;;;;;;;;;;;;;;;;;;5070450;28;19912;-73
2023/11/29 14:03:42;;;;;;;;;;;;;;;;;;5070122;28;19957;-75
2023/11/29 14:06:12;;;;;;;;;;;;;;;;;;5073904;28;19912;-74
2023/11/29 14:08:40;;;;;;;;;;;;;;;;;;5072333;28;19909;-75
2023/11/29 14:11:06;;;;;;;;;;;;;;;;;;5073262;28;19909;-74
2023/11/29 14:13:31;;;;;;;;;;;;;;;;;;5074485;28;19920;-74
2023/11/29 14:15:58;;;;;;;;;;;;;;;;;;5075249;28;19920;-74
2023/11/29 14:18:23;;;;;;;;;;;;;;;;;;5075421;28;20384;-73
2023/11/29 14:20:49;;;;;;;;;;;;;;;;;;5074628;28;19909;-74
2023/11/29 14:23:15;;;;;;;;;;;;;;;;;;5073896;28;19995;-74
2023/11/29 14:25:41;;;;;;;;;;;;;;;;;;5074150;28;19923;-74
2023/11/29 14:28:07;;;;;;;;;;;;;;;;;;5074520;28;19909;-74
2023/11/29 14:30:33;;;;;;;;;;;;;;;;;;5076037;28;19915;-74
2023/11/29 14:32:59;;;;;;;;;;;;;;;;;;5075476;28;20360;-74
2023/11/29 14:35:25;;;;;;;;;;;;;;;;;;5073332;28;20418;-74
2023/11/29 14:37:51;;;;;;;;;;;;;;;;;;5075018;28;20328;-74
2023/11/29 14:40:17;;;;;;;;;;;;;;;;;;5073236;28;20281;-75
2023/11/29 14:42:46;;;;;;;;;;;;;;;;;;5073624;28;20237;-74
2023/11/29 14:45:12;;;;;;;;;;;;;;;;;;5091046;28;19962;-74
2023/11/29 14:47:37;;;;;;;;;;;;;;;;;;5076941;28;19915;-74
2023/11/29 14:50:03;;;;;;;;;;;;;;;;;;5095636;28;19908;-74
2023/11/29 14:52:29;;;;;;;;;;;;;;;;;;5095782;28;19942;-74
2023/11/29 14:54:55;;;;;;;;;;;;;;;;;;5095152;28;19912;-75
2023/11/29 14:57:23;;;;;;;;;;;;;;;;;;5095861;28;19908;-75
2023/11/29 14:59:50;;;;;;;;;;;;;;;;;;5095479;28;19908;-75
2023/11/29 15:02:16;;;;;;;;;;;;;;;;;;5095161;28;19912;-75
2023/11/29 15:04:42;;;;;;;;;;;;;;;;;;5077268;28;19916;-76
2023/11/29 15:07:08;;;;;;;;;;;;;;;;;;5094668;28;19908;-73
2023/11/29 15:09:35;;;;;;;;;;;;;;;;;;5076722;28;19919;-74
2023/11/29 15:12:01;;;;;;;;;;;;;;;;;;5095173;28;19915;-74
2023/11/29 15:14:28;;;;;;;;;;;;;;;;;;5095213;28;19908;-72
2023/11/29 15:16:54;;;;;;;;;;;;;;;;;;5095220;28;19908;-74
2023/11/29 15:19:19;;;;;;;;;;;;;;;;;;5076977;28;19937;-74
2023/11/29 15:21:46;;;;;;;;;;;;;;;;;;5094721;28;19991;-74
2023/11/29 15:24:11;;;;;;;;;;;;;;;;;;5094845;28;19939;-74
2023/11/29 15:26:37;;;;;;;;;;;;;;;;;;5094981;28;20368;-74
2023/11/29 15:29:03;;;;;;;;;;;;;;;;;;5094560;28;20393;-73
2023/11/29 15:31:29;;;;;;;;;;;;;;;;;;5076660;28;19908;-73
2023/11/29 15:33:55;;;;;;;;;;;;;;;;;;5094745;28;19951;-74
2023/11/29 15:36:21;;;;;;;;;;;;;;;;;;5094482;28;19978;-74
2023/11/29 15:38:49;;;;;;;;;;;;;;;;;;5094695;28;19908;-75
2023/11/29 15:41:15;;;;;;;;;;;;;;;;;;5094614;28;20316;-74
2023/11/29 15:43:41;;;;;;;;;;;;;;;;;;5075818;28;20019;-75
2023/11/29 15:46:08;;;;;;;;;;;;;;;;;;5076467;28;20337;-74
2023/11/29 15:48:34;;;;;;;;;;;;;;;;;;5076480;28;20348;-74
2023/11/29 15:51:00;;;;;;;;;;;;;;;;;;5075929;28;20002;-74
2023/11/29 15:53:27;;;;;;;;;;;;;;;;;;5076237;28;19919;-74
2023/11/29 15:55:53;;;;;;;;;;;;;;;;;;5094438;28;19911;-75
2023/11/29 15:58:19;;;;;;;;;;;;;;;;;;5093957;28;19908;-75
2023/11/29 16:00:45;;;;;;;;;;;;;;;;;;5094321;28;19935;-75
2023/11/29 16:03:12;;;;;;;;;;;;;;;;;;5094344;28;19915;-75
2023/11/29 16:05:37;;;;;;;;;;;;;;;;;;5093889;28;19916;-75
2023/11/29 16:08:03;;;;;;;;;;;;;;;;;;5076069;28;20322;-75
2023/11/29 16:10:29;;;;;;;;;;;;;;;;;;5094873;28;19912;-75
2023/11/29 16:12:57;;;;;;;;;;;;;;;;;;5093980;28;19908;-75
2023/11/29 16:15:23;;;;;;;;;;;;;;;;;;5094116;28;19913;-75
2023/11/29 16:17:49;;;;;;;;;;;;;;;;;;5093676;28;19961;-75
2023/11/29 16:20:14;;;;;;;;;;;;;;;;;;5093985;28;20352;-75
2023/11/29 16:22:40;;;;;;;;;;;;;;;;;;5094042;28;20411;-75
2023/11/29 16:25:06;;;;;;;;;;;;;;;;;;5094082;28;20370;-75
2023/11/29 16:27:36;;;;;;;;;;;;;;;;;;5075963;28;19947;-74
2023/11/29 16:30:02;;;;;;;;;;;;;;;;;;5094002;28;20369;-74
2023/11/29 16:32:28;;;;;;;;;;;;;;;;;;5075718;28;19908;-75
2023/11/29 16:34:54;;;;;;;;;;;;;;;;;;5090468;28;19956;-75
2023/11/29 16:37:20;;;;;;;;;;;;;;;;;;5093099;28;19970;-75
2023/11/29 16:39:46;;;;;;;;;;;;;;;;;;5075098;28;19916;-75
2023/11/29 16:42:12;;;;;;;;;;;;;;;;;;5075426;28;20169;-75
2023/11/29 16:44:38;;;;;;;;;;;;;;;;;;5093210;28;19920;-75
2023/11/29 16:47:04;;;;;;;;;;;;;;;;;;5093353;28;19919;-75
2023/11/29 16:49:30;;;;;;;;;;;;;;;;;;5075488;28;19908;-75
2023/11/29 16:51:56;;;;;;;;;;;;;;;;;;5093483;28;20001;-73
2023/11/29 16:54:22;;;;;;;;;;;;;;;;;;5093316;28;19915;-75
2023/11/29 16:56:48;;;;;;;;;;;;;;;;;;5093812;28;20395;-76